Time;durP1;ratioP1;P1;durP2;ratioP2;P2;SDS_P1;SDS_P2;PMS_P1;PMS_P2;Temp;Humidity;BMP_temperature;BMP_pressure;BME280_temperature;BME280_humidity;BME280_pressure;Samples;Min_cycle;Max_cycle;Signal;HPM_P1;HPM_P2
2021/07/03 00:02:04;;;;;;;22.13;16.85;;;18.30;99.90;;;;;;5031173;28;20049;-54
2021/07/03 00:04:29;;;;;;;19.88;16.10;;;18.30;99.90;;;;;;5031139;28;20031;-55
2021/07/03 00:06:55;;;;;;;22.15;16.00;;;18.30;99.90;;;;;;5031049;28;20064;-55
2021/07/03 00:09:21;;;;;;;25.80;17.13;;;18.10;99.90;;;;;;5031003;28;20052;-54
2021/07/03 00:11:47;;;;;;;21.23;17.02;;;18.10;99.90;;;;;;5031059;28;20025;-54
2021/07/03 00:14:14;;;;;;;20.67;17.08;;;18.20;99.90;;;;;;5030898;28;20036;-54
2021/07/03 00:16:40;;;;;;;24.25;17.20;;;18.20;99.90;;;;;;5031115;28;20477;-55
2021/07/03 00:19:06;;;;;;;23.80;16.35;;;18.20;99.90;;;;;;5031012;28;20072;-55
2021/07/03 00:21:32;;;;;;;23.25;16.73;;;18.20;99.90;;;;;;5029637;28;20028;-55
2021/07/03 00:23:58;;;;;;;20.70;16.83;;;18.10;99.90;;;;;;5029898;28;20025;-55
2021/07/03 00:26:24;;;;;;;21.30;16.88;;;18.10;99.90;;;;;;5031252;28;20438;-54
2021/07/03 00:28:50;;;;;;;21.70;16.02;;;18.10;99.90;;;;;;5030943;28;20053;-54
2021/07/03 00:31:16;;;;;;;19.55;16.25;;;18.10;99.90;;;;;;5029421;28;20281;-54
2021/07/03 00:33:41;;;;;;;21.75;17.50;;;18.10;99.90;;;;;;5030895;28;20112;-54
2021/07/03 00:36:07;;;;;;;20.75;17.10;;;18.00;99.90;;;;;;5030906;28;20022;-54
2021/07/03 00:38:33;;;;;;;20.65;16.45;;;18.00;99.90;;;;;;5030943;28;20022;-54
2021/07/03 00:40:58;;;;;;;24.33;17.17;;;18.10;99.90;;;;;;5029532;28;20091;-54
2021/07/03 00:43:24;;;;;;;25.35;16.77;;;18.10;99.90;;;;;;5031086;28;20030;-54
2021/07/03 00:45:50;;;;;;;23.42;16.92;;;18.10;99.90;;;;;;5030747;28;20057;-54
2021/07/03 00:48:15;;;;;;;22.25;16.98;;;18.00;99.90;;;;;;5030748;28;20386;-54
2021/07/03 00:50:41;;;;;;;19.33;16.25;;;18.10;99.90;;;;;;5029685;28;20386;-54
2021/07/03 00:53:07;;;;;;;22.15;16.85;;;18.30;99.90;;;;;;5030586;28;20041;-54
2021/07/03 00:55:33;;;;;;;19.73;15.80;;;18.40;99.90;;;;;;5029378;28;20466;-54
2021/07/03 00:57:58;;;;;;;23.48;18.20;;;18.30;99.90;;;;;;5030534;28;20044;-54
2021/07/03 01:00:24;;;;;;;21.40;17.10;;;18.20;99.90;;;;;;5031006;28;20037;-54
2021/07/03 01:02:50;;;;;;;19.83;16.48;;;18.20;99.90;;;;;;5029219;28;20037;-54
2021/07/03 01:05:16;;;;;;;21.75;16.05;;;18.30;99.90;;;;;;5030760;28;20491;-55
2021/07/03 01:07:42;;;;;;;19.42;15.90;;;18.20;99.90;;;;;;5030532;28;20040;-54
2021/07/03 01:10:27;;;;;;;23.00;16.27;;;18.20;99.90;;;;;;5030394;28;20040;-54
2021/07/03 01:12:53;;;;;;;18.83;15.93;;;18.00;99.90;;;;;;5030430;28;20021;-54
2021/07/03 01:15:19;;;;;;;18.95;16.25;;;17.90;99.90;;;;;;5032995;28;20031;-54
2021/07/03 01:17:45;;;;;;;19.10;16.13;;;17.90;99.90;;;;;;5034176;28;20025;-54
2021/07/03 01:20:11;;;;;;;23.00;16.42;;;18.10;99.90;;;;;;5034751;28;20048;-54
2021/07/03 01:22:39;;;;;;;22.75;16.35;;;18.00;99.90;;;;;;5033710;28;20138;-54
2021/07/03 01:25:06;;;;;;;20.20;16.60;;;18.00;99.90;;;;;;5034592;28;20075;-56
2021/07/03 01:27:32;;;;;;;21.90;17.13;;;18.20;99.90;;;;;;5034778;28;20029;-55
2021/07/03 01:29:58;;;;;;;21.40;16.27;;;18.30;99.90;;;;;;5034370;28;20485;-56
2021/07/03 01:32:24;;;;;;;23.25;17.40;;;18.10;99.90;;;;;;5033844;28;20068;-55
2021/07/03 01:34:50;;;;;;;21.67;16.95;;;18.00;99.90;;;;;;5033819;28;20022;-55
2021/07/03 01:37:15;;;;;;;22.25;17.52;;;18.00;99.90;;;;;;5033969;28;20033;-55
2021/07/03 01:39:41;;;;;;;21.23;16.45;;;18.10;99.90;;;;;;5034079;28;20018;-54
2021/07/03 01:42:07;;;;;;;25.15;17.02;;;18.40;99.90;;;;;;5033738;28;20076;-54
2021/07/03 01:44:34;;;;;;;19.67;16.02;;;18.60;99.90;;;;;;5033698;28;20030;-54
2021/07/03 01:47:01;;;;;;;21.05;15.73;;;18.40;99.90;;;;;;5033714;28;20029;-54
2021/07/03 01:49:28;;;;;;;19.10;15.55;;;18.30;99.90;;;;;;5033459;28;20125;-54
2021/07/03 01:51:55;;;;;;;20.17;15.95;;;18.10;99.90;;;;;;5033477;28;20030;-54
2021/07/03 01:54:21;;;;;;;24.90;16.08;;;18.10;99.90;;;;;;5033477;28;20363;-54
2021/07/03 01:56:58;;;;;;;24.45;16.45;;;18.10;99.90;;;;;;5033533;28;20033;-54
2021/07/03 01:59:33;;;;;;;17.77;15.10;;;18.10;99.90;;;;;;5033563;28;20029;-54
2021/07/03 02:02:02;;;;;;;18.35;15.25;;;18.00;99.90;;;;;;5033299;28;20064;-54
2021/07/03 02:04:28;;;;;;;23.30;15.27;;;18.10;99.90;;;;;;5033399;28;20033;-54
2021/07/03 02:06:54;;;;;;;22.33;15.25;;;18.20;99.90;;;;;;5033379;28;20115;-55
2021/07/03 02:09:20;;;;;;;22.38;15.00;;;18.10;99.90;;;;;;5033338;28;20489;-55
2021/07/03 02:11:47;;;;;;;18.23;14.07;;;18.00;99.90;;;;;;5033136;28;20536;-55
2021/07/03 02:14:13;;;;;;;18.80;14.23;;;18.00;99.90;;;;;;5033104;28;20040;-55
2021/07/03 02:16:39;;;;;;;17.15;14.55;;;17.90;99.90;;;;;;5032952;28;20018;-55
2021/07/03 02:19:06;;;;;;;18.48;14.65;;;17.90;99.90;;;;;;5032913;28;20022;-55
2021/07/03 02:21:32;;;;;;;20.25;14.02;;;17.90;99.90;;;;;;5032891;28;20023;-55
2021/07/03 02:23:58;;;;;;;19.08;14.25;;;17.80;99.90;;;;;;5032798;28;20083;-55
2021/07/03 02:26:25;;;;;;;20.05;15.27;;;17.80;99.90;;;;;;5031803;28;20383;-55
2021/07/03 02:28:51;;;;;;;18.73;14.60;;;17.80;99.90;;;;;;5032756;28;20075;-55
2021/07/03 02:31:18;;;;;;;17.92;14.93;;;17.90;99.90;;;;;;5031527;28;20057;-55
2021/07/03 02:33:44;;;;;;;19.83;15.32;;;18.00;99.90;;;;;;5032810;28;20480;-55
2021/07/03 02:36:10;;;;;;;18.10;14.85;;;18.10;99.90;;;;;;5032575;28;20021;-55
2021/07/03 02:38:35;;;;;;;22.85;14.85;;;18.30;99.90;;;;;;5032633;28;20024;-54
2021/07/03 02:41:01;;;;;;;18.52;14.25;;;18.50;99.90;;;;;;5032710;28;20032;-54
2021/07/03 02:43:27;;;;;;;19.98;14.75;;;18.70;99.90;;;;;;5032639;28;20029;-54
2021/07/03 02:45:53;;;;;;;21.35;15.02;;;18.80;99.90;;;;;;5031280;28;20490;-55
2021/07/03 02:48:18;;;;;;;18.95;14.45;;;18.80;99.90;;;;;;5032263;28;20075;-54
2021/07/03 02:50:44;;;;;;;20.80;14.07;;;18.90;99.90;;;;;;5032440;28;20030;-54
2021/07/03 02:53:10;;;;;;;21.15;14.23;;;18.90;99.90;;;;;;5032617;28;20037;-54
2021/07/03 02:55:36;;;;;;;23.00;14.85;;;18.90;99.90;;;;;;5032375;28;20026;-55
2021/07/03 02:58:01;;;;;;;18.85;14.32;;;18.80;99.90;;;;;;5032195;28;20083;-55
2021/07/03 03:00:28;;;;;;;19.35;14.55;;;18.60;99.90;;;;;;5032804;28;20521;-55
2021/07/03 03:02:53;;;;;;;22.73;15.85;;;18.40;99.90;;;;;;5032394;28;20029;-55
2021/07/03 03:05:19;;;;;;;20.73;15.43;;;18.40;99.90;;;;;;5032334;28;20036;-55
2021/07/03 03:07:45;;;;;;;17.20;13.85;;;18.30;99.90;;;;;;5032431;28;20351;-55
2021/07/03 03:10:13;;;;;;;21.17;15.07;;;18.20;99.90;;;;;;5032443;28;20049;-55
2021/07/03 03:12:39;;;;;;;20.08;15.40;;;18.30;99.90;;;;;;5031848;28;20080;-55
2021/07/03 03:15:06;;;;;;;21.83;15.18;;;18.30;99.90;;;;;;5032114;28;20514;-55
2021/07/03 03:17:32;;;;;;;20.73;14.48;;;18.40;99.90;;;;;;5031928;28;20063;-55
2021/07/03 03:19:57;;;;;;;17.80;14.13;;;18.20;99.90;;;;;;5031866;28;20053;-55
2021/07/03 03:22:23;;;;;;;18.60;12.68;;;18.10;99.90;;;;;;5031751;28;20049;-55
2021/07/03 03:24:49;;;;;;;18.55;13.95;;;18.00;99.90;;;;;;5031746;28;20021;-55
2021/07/03 03:27:14;;;;;;;20.13;13.85;;;18.10;99.90;;;;;;5031960;28;20013;-55
2021/07/03 03:29:40;;;;;;;22.58;16.83;;;18.20;99.90;;;;;;5031660;28;20018;-55
2021/07/03 03:32:06;;;;;;;19.73;15.27;;;18.20;99.90;;;;;;5031441;28;20413;-55
2021/07/03 03:34:32;;;;;;;19.13;14.75;;;18.30;99.90;;;;;;5031643;28;20555;-55
2021/07/03 03:36:58;;;;;;;18.05;13.95;;;18.40;99.90;;;;;;5031457;28;20104;-55
2021/07/03 03:39:23;;;;;;;20.45;14.27;;;18.40;99.90;;;;;;5031616;28;20018;-55
2021/07/03 03:41:49;;;;;;;18.33;14.05;;;18.50;99.90;;;;;;5031610;28;20025;-55
2021/07/03 03:44:15;;;;;;;18.15;13.73;;;18.60;99.90;;;;;;5031512;28;20032;-55
2021/07/03 03:46:40;;;;;;;16.48;14.05;;;18.40;99.90;;;;;;5031677;28;20029;-54
2021/07/03 03:49:06;;;;;;;20.30;14.05;;;18.50;99.90;;;;;;5031547;28;20467;-55
2021/07/03 03:51:32;;;;;;;14.68;12.77;;;18.50;99.90;;;;;;5031370;28;20032;-55
2021/07/03 03:53:57;;;;;;;22.52;14.35;;;18.40;99.90;;;;;;5031409;28;20032;-55
2021/07/03 03:56:23;;;;;;;18.48;13.57;;;18.20;99.90;;;;;;5031194;28;20498;-55
2021/07/03 03:58:49;;;;;;;18.48;13.10;;;18.20;99.90;;;;;;5031180;28;20071;-55
2021/07/03 04:01:17;;;;;;;19.10;14.00;;;18.10;99.90;;;;;;5031163;28;20417;-55
2021/07/03 04:03:42;;;;;;;19.88;13.05;;;18.40;99.90;;;;;;5030979;28;20068;-55
2021/07/03 04:06:08;;;;;;;18.67;14.32;;;18.60;99.90;;;;;;5031329;28;20056;-55
2021/07/03 04:08:34;;;;;;;17.02;13.73;;;18.70;99.90;;;;;;5030979;28;20052;-55
2021/07/03 04:11:00;;;;;;;15.90;13.18;;;18.60;99.90;;;;;;5031181;28;20467;-55
2021/07/03 04:13:26;;;;;;;14.85;13.25;;;18.40;99.90;;;;;;5031490;28;20100;-55
2021/07/03 04:15:52;;;;;;;18.90;13.50;;;18.30;99.90;;;;;;5031077;28;20115;-55
2021/07/03 04:18:17;;;;;;;16.27;13.10;;;18.20;99.90;;;;;;5031090;28;20120;-55
2021/07/03 04:20:43;;;;;;;17.67;13.02;;;18.30;99.90;;;;;;5031103;28;20034;-55
2021/07/03 04:23:08;;;;;;;16.02;12.80;;;18.30;99.90;;;;;;5029629;28;20436;-55
2021/07/03 04:25:34;;;;;;;16.55;13.50;;;18.30;99.90;;;;;;5031124;28;20025;-55
2021/07/03 04:28:00;;;;;;;15.00;12.68;;;18.50;99.90;;;;;;5030998;28;20505;-55
2021/07/03 04:30:26;;;;;;;18.70;13.85;;;18.40;99.90;;;;;;5030944;28;20030;-55
2021/07/03 04:32:52;;;;;;;15.68;13.55;;;18.30;99.90;;;;;;5030534;28;20042;-55
2021/07/03 04:35:18;;;;;;;17.08;13.70;;;18.20;99.90;;;;;;5030792;28;20496;-55
2021/07/03 04:37:44;;;;;;;16.98;13.60;;;18.20;99.90;;;;;;5031046;28;20097;-55
2021/07/03 04:40:10;;;;;;;14.63;12.80;;;18.20;99.90;;;;;;5030651;28;20474;-55
2021/07/03 04:42:36;;;;;;;19.35;13.52;;;18.20;99.90;;;;;;5030684;28;20493;-55
2021/07/03 04:45:03;;;;;;;19.52;14.52;;;18.20;99.90;;;;;;5030756;28;20402;-55
2021/07/03 04:47:29;;;;;;;14.48;12.90;;;18.30;99.90;;;;;;5030721;28;20033;-55
2021/07/03 04:49:55;;;;;;;18.83;13.07;;;18.30;99.90;;;;;;5032734;28;20021;-55
2021/07/03 04:52:20;;;;;;;17.40;12.88;;;18.40;99.90;;;;;;5034661;28;20034;-55
2021/07/03 04:54:46;;;;;;;16.65;12.70;;;18.60;99.90;;;;;;5034760;28;20414;-55
2021/07/03 04:57:11;;;;;;;16.33;13.27;;;18.60;99.90;;;;;;5034458;28;20021;-55
2021/07/03 04:59:39;;;;;;;15.63;12.93;;;18.40;99.90;;;;;;5034276;28;20029;-55
2021/07/03 05:02:06;;;;;;;15.50;11.80;;;18.40;99.90;;;;;;5034296;28;20025;-55
2021/07/03 05:04:32;;;;;;;19.30;13.20;;;18.30;99.90;;;;;;5034610;28;20553;-55
2021/07/03 05:06:57;;;;;;;18.15;12.60;;;18.30;99.90;;;;;;5032955;28;20033;-55
2021/07/03 05:09:23;;;;;;;15.48;12.88;;;18.30;99.90;;;;;;5034333;28;20029;-55
2021/07/03 05:11:49;;;;;;;14.35;12.18;;;18.40;99.90;;;;;;5034345;28;20057;-55
2021/07/03 05:14:15;;;;;;;16.38;12.95;;;18.30;99.90;;;;;;5032868;28;20546;-55
2021/07/03 05:16:40;;;;;;;16.38;12.23;;;18.30;99.90;;;;;;5034173;28;20025;-55
2021/07/03 05:19:06;;;;;;;15.63;12.30;;;18.20;99.90;;;;;;5033997;28;20360;-55
2021/07/03 05:21:31;;;;;;;16.75;12.95;;;18.10;99.90;;;;;;5034265;28;20025;-55
2021/07/03 05:23:57;;;;;;;14.35;12.55;;;18.10;99.90;;;;;;5034323;28;20029;-55
2021/07/03 05:26:23;;;;;;;19.63;12.90;;;18.00;99.90;;;;;;5033962;28;20104;-55
2021/07/03 05:28:48;;;;;;;19.42;13.75;;;18.10;99.90;;;;;;5033980;28;20025;-55
2021/07/03 05:31:14;;;;;;;16.63;13.20;;;18.20;99.90;;;;;;5033892;28;20057;-55
2021/07/03 05:33:40;;;;;;;15.45;12.60;;;18.20;99.90;;;;;;5033757;28;20029;-55
2021/07/03 05:36:05;;;;;;;16.95;12.57;;;18.20;99.90;;;;;;5034016;28;20045;-55
2021/07/03 05:38:39;;;;;;;22.13;12.57;;;18.30;99.90;;;;;;5033746;28;20021;-55
2021/07/03 05:41:05;;;;;;;16.98;12.13;;;18.30;99.90;;;;;;5033814;28;20057;-55
2021/07/03 05:43:30;;;;;;;19.58;11.90;;;18.50;99.90;;;;;;5033833;28;20048;-55
2021/07/03 05:45:56;;;;;;;17.67;12.82;;;18.80;99.90;;;;;;5032373;28;20030;-55
2021/07/03 05:48:22;;;;;;;14.07;11.93;;;19.00;99.90;;;;;;5033618;28;20029;-55
2021/07/03 05:50:48;;;;;;;16.83;10.85;;;19.00;99.90;;;;;;5033508;28;20053;-55
2021/07/03 05:53:14;;;;;;;16.58;11.00;;;18.90;99.90;;;;;;5033485;28;20068;-55
2021/07/03 05:55:39;;;;;;;14.55;10.55;;;18.90;99.90;;;;;;5033405;28;20075;-55
2021/07/03 05:58:05;;;;;;;14.63;10.70;;;19.00;99.90;;;;;;5033390;28;20022;-55
2021/07/03 06:00:31;;;;;;;16.38;10.40;;;18.90;99.90;;;;;;5033191;28;20052;-55
2021/07/03 06:02:56;;;;;;;16.40;11.20;;;18.90;99.90;;;;;;5033318;28;20375;-55
2021/07/03 06:05:22;;;;;;;12.93;9.80;;;18.90;99.90;;;;;;5033430;28;20562;-55
2021/07/03 06:07:47;;;;;;;14.57;10.38;;;19.00;99.90;;;;;;5033066;28;20049;-55
2021/07/03 06:10:13;;;;;;;17.30;9.85;;;19.00;99.90;;;;;;5031990;28;20036;-55
2021/07/03 06:12:40;;;;;;;14.20;9.95;;;18.90;99.90;;;;;;5033020;28;20097;-55
2021/07/03 06:15:07;;;;;;;12.23;10.50;;;19.00;99.90;;;;;;5033113;28;20049;-55
2021/07/03 06:17:32;;;;;;;12.30;9.40;;;19.10;99.90;;;;;;5033320;28;20079;-55
2021/07/03 06:19:58;;;;;;;11.13;9.35;;;19.10;99.90;;;;;;5033029;28;20025;-55
2021/07/03 06:22:24;;;;;;;11.43;9.82;;;19.20;99.90;;;;;;5033133;28;20026;-55
2021/07/03 06:24:50;;;;;;;14.18;10.13;;;19.20;99.90;;;;;;5033054;28;20029;-55
2021/07/03 06:27:16;;;;;;;11.80;9.00;;;19.30;99.90;;;;;;5032883;28;20482;-55
2021/07/03 06:29:42;;;;;;;10.63;9.43;;;19.50;99.90;;;;;;5032849;28;20017;-54
2021/07/03 06:32:08;;;;;;;11.60;8.45;;;19.70;99.90;;;;;;5032554;28;20058;-55
2021/07/03 06:34:34;;;;;;;12.32;9.27;;;19.80;99.90;;;;;;5032767;28;20040;-55
2021/07/03 06:37:00;;;;;;;12.48;8.77;;;19.90;99.90;;;;;;5032600;28;20021;-55
2021/07/03 06:39:26;;;;;;;11.40;8.75;;;19.90;99.90;;;;;;5032722;28;20021;-55
2021/07/03 06:41:52;;;;;;;9.43;7.78;;;20.00;99.90;;;;;;5032475;28;20026;-55
2021/07/03 06:44:18;;;;;;;13.93;8.55;;;19.90;99.90;;;;;;5032544;28;20375;-55
2021/07/03 06:46:46;;;;;;;10.15;8.50;;;20.10;99.90;;;;;;5032456;28;20498;-55
2021/07/03 06:49:12;;;;;;;10.45;8.35;;;20.20;99.90;;;;;;5032752;28;20470;-55
2021/07/03 06:51:37;;;;;;;10.05;8.73;;;20.50;99.90;;;;;;5032322;28;20393;-55
2021/07/03 06:54:04;;;;;;;11.80;8.45;;;20.80;99.90;;;;;;5032441;28;20104;-55
2021/07/03 06:56:30;;;;;;;12.70;8.20;;;21.00;99.90;;;;;;5031583;28;20091;-55
2021/07/03 06:58:56;;;;;;;10.10;7.78;;;21.30;99.90;;;;;;5032741;28;20030;-55
2021/07/03 07:01:22;;;;;;;9.77;8.77;;;21.40;99.90;;;;;;5032332;28;20025;-55
2021/07/03 07:03:48;;;;;;;13.57;8.27;;;21.30;99.90;;;;;;5032483;28;20029;-55
2021/07/03 07:06:13;;;;;;;10.77;8.55;;;21.30;99.90;;;;;;5032364;28;20021;-55
2021/07/03 07:08:39;;;;;;;11.63;8.93;;;21.20;99.90;;;;;;5032129;28;20038;-55
2021/07/03 07:11:05;;;;;;;10.13;7.50;;;21.40;99.90;;;;;;5032232;28;20363;-56
2021/07/03 07:13:30;;;;;;;12.57;7.70;;;21.40;99.90;;;;;;5031535;28;20021;-55
2021/07/03 07:15:56;;;;;;;10.10;7.18;;;21.60;99.90;;;;;;5032392;28;20026;-56
2021/07/03 07:18:22;;;;;;;8.20;7.07;;;21.60;99.90;;;;;;5032523;28;20029;-56
2021/07/03 07:20:47;;;;;;;9.23;7.88;;;21.30;99.90;;;;;;5032184;28;20382;-55
2021/07/03 07:23:13;;;;;;;10.00;6.90;;;21.50;99.90;;;;;;5032088;28;20577;-56
2021/07/03 07:25:39;;;;;;;7.57;6.80;;;22.10;99.90;;;;;;5032219;28;20061;-55
2021/07/03 07:28:05;;;;;;;10.18;7.00;;;22.40;99.90;;;;;;5031952;28;20018;-55
2021/07/03 07:30:30;;;;;;;8.40;6.90;;;22.70;99.90;;;;;;5031818;28;20425;-55
2021/07/03 07:32:56;;;;;;;9.20;7.35;;;22.70;99.90;;;;;;5031750;28;20057;-56
2021/07/03 07:35:22;;;;;;;7.20;6.15;;;22.40;99.90;;;;;;5032132;28;20026;-55
2021/07/03 07:37:48;;;;;;;9.35;6.93;;;22.40;99.90;;;;;;5032423;28;20099;-55
2021/07/03 07:40:15;;;;;;;7.20;6.45;;;22.60;99.90;;;;;;5031114;28;20025;-55
2021/07/03 07:42:41;;;;;;;7.95;6.57;;;23.00;99.90;;;;;;5031646;28;20029;-55
2021/07/03 07:45:08;;;;;;;9.30;6.80;;;22.90;99.90;;;;;;5031713;28;20030;-56
2021/07/03 07:47:34;;;;;;;7.63;6.10;;;23.10;99.90;;;;;;5031860;28;20068;-56
2021/07/03 07:50:00;;;;;;;6.15;5.55;;;23.10;99.90;;;;;;5031649;28;20419;-56
2021/07/03 07:52:25;;;;;;;7.53;6.30;;;23.20;99.90;;;;;;5031463;28;20093;-56
2021/07/03 07:54:51;;;;;;;8.50;6.55;;;23.00;99.90;;;;;;5032041;28;20101;-56
2021/07/03 07:57:21;;;;;;;6.75;6.15;;;23.10;99.90;;;;;;5031509;28;20034;-56
2021/07/03 07:59:46;;;;;;;8.77;6.00;;;23.30;99.90;;;;;;5031624;28;20052;-56
2021/07/03 08:02:12;;;;;;;7.65;5.82;;;23.90;99.90;;;;;;5031640;28;20017;-56
2021/07/03 08:04:37;;;;;;;6.88;5.90;;;24.60;99.90;;;;;;5031685;28;20049;-56
2021/07/03 08:07:03;;;;;;;6.15;5.50;;;25.40;99.90;;;;;;5031231;28;20505;-55
2021/07/03 08:09:29;;;;;;;8.82;6.03;;;25.10;99.90;;;;;;5031408;28;20045;-56
2021/07/03 08:11:55;;;;;;;6.72;5.55;;;25.00;99.90;;;;;;5031262;28;20049;-55
2021/07/03 08:14:21;;;;;;;6.10;5.50;;;24.60;99.90;;;;;;5031265;28;20052;-55
2021/07/03 08:16:46;;;;;;;7.82;6.03;;;24.40;99.90;;;;;;5031426;28;20028;-55
2021/07/03 08:19:12;;;;;;;7.30;5.72;;;24.50;99.90;;;;;;5031203;28;20407;-55
2021/07/03 08:21:38;;;;;;;6.97;5.47;;;24.30;99.90;;;;;;5031319;28;20079;-55
2021/07/03 08:24:04;;;;;;;8.35;5.88;;;23.90;99.90;;;;;;5031839;28;20034;-55
2021/07/03 08:26:29;;;;;;;6.82;5.45;;;23.80;99.90;;;;;;5035332;28;20083;-55
2021/07/03 08:28:55;;;;;;;6.15;5.65;;;23.80;99.90;;;;;;5035290;28;20501;-55
2021/07/03 08:31:21;;;;;;;7.55;5.20;;;23.60;99.90;;;;;;5035014;28;20115;-55
2021/07/03 08:33:46;;;;;;;7.07;5.63;;;23.50;99.90;;;;;;5035114;28;20033;-55
2021/07/03 08:36:12;;;;;;;6.18;5.50;;;23.50;99.90;;;;;;5034892;28;20028;-54
2021/07/03 08:38:37;;;;;;;6.65;5.45;;;23.30;99.90;;;;;;5033700;28;20025;-54
2021/07/03 08:41:03;;;;;;;8.10;6.13;;;23.10;99.90;;;;;;5034826;28;20029;-54
2021/07/03 08:43:29;;;;;;;8.55;5.82;;;23.00;99.90;;;;;;5034822;28;20389;-54
2021/07/03 08:45:56;;;;;;;7.45;5.90;;;23.20;99.90;;;;;;5034950;28;20029;-54
2021/07/03 08:48:23;;;;;;;7.68;6.15;;;23.40;99.90;;;;;;5035041;28;20087;-54
2021/07/03 08:50:49;;;;;;;6.40;5.40;;;23.90;99.90;;;;;;5034747;28;20029;-54
2021/07/03 08:53:14;;;;;;;6.53;5.75;;;24.40;99.90;;;;;;5034979;28;20036;-54
2021/07/03 08:55:40;;;;;;;7.28;5.15;;;24.60;99.90;;;;;;5034603;28;20071;-54
2021/07/03 08:58:06;;;;;;;6.22;5.18;;;25.10;99.90;;;;;;5034625;28;20483;-54
2021/07/03 09:00:36;;;;;;;6.95;5.38;;;25.20;99.90;;;;;;5034326;28;20433;-54
2021/07/03 09:03:16;;;;;;;6.85;5.10;;;25.10;99.90;;;;;;5034630;28;20030;-54
2021/07/03 09:05:51;;;;;;;5.80;5.20;;;25.70;99.90;;;;;;5034530;28;20029;-54
2021/07/03 09:08:19;;;;;;;6.78;5.07;;;25.50;99.90;;;;;;5034439;28;20433;-54
2021/07/03 09:10:45;;;;;;;7.75;5.30;;;25.60;99.90;;;;;;5034321;28;20032;-54
2021/07/03 09:13:12;;;;;;;5.90;5.25;;;25.20;99.90;;;;;;5032873;28;20021;-54
2021/07/03 09:15:40;;;;;;;7.05;5.43;;;24.90;99.90;;;;;;5033376;28;20028;-54
2021/07/03 09:18:12;;;;;;;6.88;5.55;;;24.50;99.90;;;;;;5034630;28;20475;-54
2021/07/03 09:20:59;;;;;;;6.65;5.78;;;24.60;99.90;;;;;;5034408;28;20127;-58
2021/07/03 09:23:34;;;;;;;8.25;5.72;;;25.00;99.90;;;;;;5034061;28;20124;-54
2021/07/03 09:26:02;;;;;;;6.03;5.30;;;24.60;99.90;;;;;;5034024;28;20040;-55
2021/07/03 09:28:34;;;;;;;8.18;5.35;;;24.70;99.90;;;;;;5033950;28;20522;-54
2021/07/03 09:31:01;;;;;;;5.97;5.25;;;25.00;99.90;;;;;;5032323;28;20073;-54
2021/07/03 09:33:29;;;;;;;5.95;5.30;;;25.50;99.90;;;;;;5033852;28;20029;-55
2021/07/03 09:36:00;;;;;;;8.05;5.03;;;25.90;99.90;;;;;;5033421;28;20021;-54
2021/07/03 09:38:33;;;;;;;5.63;5.13;;;26.60;99.90;;;;;;5034023;28;20037;-54
2021/07/03 09:41:14;;;;;;;8.10;5.18;;;26.70;99.90;;;;;;5033972;28;20033;-54
2021/07/03 09:43:48;;;;;;;5.30;4.80;;;26.70;99.90;;;;;;5033768;28;20025;-54
2021/07/03 09:46:34;;;;;;;5.47;4.85;;;26.50;99.90;;;;;;5034193;28;20100;-55
2021/07/03 09:49:08;;;;;;;6.15;5.50;;;27.10;99.90;;;;;;5033476;28;20052;-54
2021/07/03 09:51:44;;;;;;;6.97;6.03;;;26.60;99.90;;;;;;5034512;28;20032;-54
2021/07/03 09:54:12;;;;;;;6.32;5.72;;;25.80;99.90;;;;;;5032825;28;20040;-54
2021/07/03 09:56:40;;;;;;;6.13;5.53;;;25.50;99.90;;;;;;5033558;28;20033;-54
2021/07/03 09:59:06;;;;;;;6.57;5.78;;;25.70;99.90;;;;;;5033498;28;20026;-54
2021/07/03 10:01:32;;;;;;;6.32;5.82;;;25.40;99.90;;;;;;5033514;28;20122;-54
2021/07/03 10:04:01;;;;;;;6.95;6.30;;;25.40;99.90;;;;;;5033452;28;20052;-54
2021/07/03 10:07:06;;;;;;;7.13;6.13;;;25.50;99.90;;;;;;5033558;28;20478;-54
2021/07/03 10:09:37;;;;;;;7.43;5.57;;;25.80;99.90;;;;;;5033292;28;20577;-54
2021/07/03 10:12:09;;;;;;;6.90;6.20;;;26.40;99.90;;;;;;5033442;28;20029;-54
2021/07/03 10:14:55;;;;;;;6.63;6.05;;;27.20;99.90;;;;;;5033415;28;20049;-54
2021/07/03 10:17:26;;;;;;;6.93;6.20;;;27.00;99.90;;;;;;5032966;28;20429;-54
2021/07/03 10:19:52;;;;;;;7.20;6.47;;;26.90;99.90;;;;;;5033252;28;20029;-54
2021/07/03 10:22:24;;;;;;;7.65;6.57;;;27.00;99.90;;;;;;5033161;28;20018;-54
2021/07/03 10:25:20;;;;;;;9.15;7.15;;;27.20;99.90;;;;;;5033067;28;20036;-54
2021/07/03 10:27:51;;;;;;;6.95;6.25;;;26.80;99.90;;;;;;5032689;28;20072;-54
2021/07/03 10:30:25;;;;;;;8.98;7.57;;;27.30;99.90;;;;;;5032774;28;20033;-54
2021/07/03 10:32:59;;;;;;;7.05;6.45;;;28.20;99.90;;;;;;5032924;28;20076;-54
2021/07/03 10:35:26;;;;;;;8.93;7.70;;;27.70;99.90;;;;;;5032714;28;20032;-54
2021/07/03 10:37:54;;;;;;;8.45;7.43;;;27.70;99.90;;;;;;5033111;28;20494;-54
2021/07/03 10:40:25;;;;;;;10.38;6.93;;;27.80;99.90;;;;;;5032587;28;20482;-54
2021/07/03 10:42:53;;;;;;;7.72;6.93;;;28.00;99.90;;;;;;5032565;28;20393;-54
2021/07/03 10:45:23;;;;;;;7.30;6.60;;;27.70;99.90;;;;;;5032619;28;20021;-54
2021/07/03 10:47:50;;;;;;;7.40;6.45;;;27.30;99.90;;;;;;5031424;28;20072;-54
2021/07/03 10:50:22;;;;;;;7.78;6.88;;;27.00;99.90;;;;;;5032814;28;20108;-54
2021/07/03 10:52:49;;;;;;;8.80;6.90;;;27.10;99.90;;;;;;5032256;28;20063;-54
2021/07/03 10:55:35;;;;;;;8.13;6.90;;;27.10;99.90;;;;;;5032348;28;20017;-54
2021/07/03 10:58:12;;;;;;;8.07;6.75;;;26.90;99.90;;;;;;5032289;28;20029;-54
2021/07/03 11:00:38;;;;;;;7.22;6.53;;;26.60;99.90;;;;;;5031021;28;20033;-54
2021/07/03 11:03:25;;;;;;;7.00;6.30;;;26.70;99.90;;;;;;5032167;28;20040;-54
2021/07/03 11:05:52;;;;;;;7.10;6.43;;;26.60;99.90;;;;;;5031856;28;20033;-54
2021/07/03 11:08:22;;;;;;;7.30;6.25;;;26.60;99.90;;;;;;5032211;28;20375;-54
2021/07/03 11:10:48;;;;;;;9.10;6.10;;;26.60;99.90;;;;;;5032054;28;20094;-54
2021/07/03 11:13:19;;;;;;;7.47;6.22;;;26.90;99.90;;;;;;5031937;28;20025;-54
2021/07/03 11:15:44;;;;;;;5.93;5.38;;;27.20;99.90;;;;;;5032060;28;20092;-54
2021/07/03 11:18:10;;;;;;;10.75;5.40;;;27.30;99.90;;;;;;5030706;28;20029;-54
2021/07/03 11:20:40;;;;;;;6.05;5.50;;;27.00;99.90;;;;;;5031762;28;20025;-54
2021/07/03 11:23:06;;;;;;;6.57;5.95;;;27.10;99.90;;;;;;5031880;28;20033;-54
2021/07/03 11:25:40;;;;;;;6.90;5.88;;;26.80;99.90;;;;;;5031704;28;20025;-54
2021/07/03 11:28:14;;;;;;;6.30;5.75;;;26.70;99.90;;;;;;5031555;28;20110;-54
2021/07/03 11:30:46;;;;;;;6.32;5.40;;;26.40;99.90;;;;;;5031408;28;20083;-54
2021/07/03 11:33:14;;;;;;;7.13;6.32;;;26.00;99.90;;;;;;5031812;28;20026;-54
2021/07/03 11:35:44;;;;;;;6.95;6.25;;;25.60;99.90;;;;;;5030196;28;20091;-54
2021/07/03 11:38:26;;;;;;;7.40;6.35;;;25.50;99.90;;;;;;5009381;28;20053;-54
2021/07/03 11:40:54;;;;;;;7.13;6.28;;;25.40;99.90;;;;;;5031434;28;20028;-55
2021/07/03 11:43:21;;;;;;;7.55;5.90;;;25.30;99.90;;;;;;5031289;28;20037;-55
2021/07/03 11:45:47;;;;;;;7.05;6.10;;;25.40;99.90;;;;;;5031280;28;20029;-55
2021/07/03 11:48:14;;;;;;;7.15;6.10;;;25.60;99.90;;;;;;5031344;28;20105;-55
2021/07/03 11:50:46;;;;;;;8.85;5.90;;;26.30;99.90;;;;;;5031490;28;20025;-55
2021/07/03 11:53:14;;;;;;;6.67;5.87;;;26.60;99.90;;;;;;5031415;28;20091;-55
2021/07/03 11:55:44;;;;;;;9.63;6.40;;;26.70;99.90;;;;;;5030128;28;20069;-55
2021/07/03 11:58:34;;;;;;;7.20;5.60;;;26.60;99.90;;;;;;5031112;28;20128;-55
2021/07/03 12:01:09;;;;;;;6.57;5.78;;;26.90;99.90;;;;;;5023026;28;20033;-55
2021/07/03 12:03:38;;;;;;;7.20;6.35;;;27.40;99.90;;;;;;5031611;28;20493;-55
2021/07/03 12:06:06;;;;;;;9.93;6.15;;;26.60;99.90;;;;;;5029962;28;20393;-55
2021/07/03 12:08:38;;;;;;;9.23;6.28;;;26.10;99.90;;;;;;5031701;28;20075;-55
2021/07/03 12:11:05;;;;;;;;;;;25.90;99.90;;;;;;5031624;28;20037;-55
2021/07/03 12:13:36;;;;;;;9.70;7.05;;;25.60;99.90;;;;;;5031396;28;19909;-55
2021/07/03 12:16:04;;;;;;;7.78;6.85;;;25.50;99.90;;;;;;5031448;28;20053;-55
2021/07/03 12:18:49;;;;;;;8.98;7.28;;;25.40;99.90;;;;;;5030910;28;20057;-55
2021/07/03 12:21:17;;;;;;;10.30;7.60;;;25.10;99.90;;;;;;5031260;28;20026;-55
2021/07/03 12:23:48;;;;;;;9.27;7.75;;;24.90;99.90;;;;;;5030987;28;20029;-55
2021/07/03 12:26:17;;;;;;;10.77;7.90;;;24.90;99.90;;;;;;5030904;28;20033;-55
2021/07/03 12:28:55;;;;;;;8.43;7.55;;;24.90;99.90;;;;;;5031254;28;20037;-55
2021/07/03 12:31:27;;;;;;;8.55;7.68;;;25.10;99.90;;;;;;5030444;28;20049;-55
2021/07/03 12:34:11;;;;;;;12.30;8.70;;;25.00;99.90;;;;;;5030815;28;20036;-55
2021/07/03 12:36:44;;;;;;;15.05;9.05;;;25.10;99.90;;;;;;5031118;28;20548;-55
2021/07/03 12:39:21;;;;;;;12.40;8.95;;;25.30;99.90;;;;;;5030932;28;20024;-55